sensor_id;sensor_type;location;lat;lon;timestamp;P1;durP1;ratioP1;P2;durP2;ratioP2
1320;SDS011;653;51.480;11.992;2024-03-02T00:02:12;61.33;;;36.50;;
1320;SDS011;653;51.480;11.992;2024-03-02T00:04:40;61.17;;;35.77;;
1320;SDS011;653;51.480;11.992;2024-03-02T00:07:07;57.10;;;34.77;;
1320;SDS011;653;51.480;11.992;2024-03-02T00:09:36;54.60;;;37.30;;
1320;SDS011;653;51.480;11.992;2024-03-02T00:12:02;53.80;;;35.37;;
1320;SDS011;653;51.480;11.992;2024-03-02T00:14:32;61.03;;;35.80;;
1320;SDS011;653;51.480;11.992;2024-03-02T00:17:01;56.47;;;34.50;;
1320;SDS011;653;51.480;11.992;2024-03-02T00:19:32;51.33;;;35.30;;
1320;SDS011;653;51.480;11.992;2024-03-02T00:22:00;53.03;;;35.87;;
1320;SDS011;653;51.480;11.992;2024-03-02T00:24:30;60.20;;;34.57;;
1320;SDS011;653;51.480;11.992;2024-03-02T00:26:57;54.03;;;36.30;;
1320;SDS011;653;51.480;11.992;2024-03-02T00:29:24;50.67;;;34.67;;
1320;SDS011;653;51.480;11.992;2024-03-02T00:31:51;54.77;;;34.30;;
1320;SDS011;653;51.480;11.992;2024-03-02T00:34:19;48.40;;;34.80;;
1320;SDS011;653;51.480;11.992;2024-03-02T00:36:47;61.40;;;35.20;;
1320;SDS011;653;51.480;11.992;2024-03-02T00:39:15;52.23;;;34.47;;
1320;SDS011;653;51.480;11.992;2024-03-02T00:41:42;54.43;;;34.20;;
1320;SDS011;653;51.480;11.992;2024-03-02T00:44:10;51.63;;;34.50;;
1320;SDS011;653;51.480;11.992;2024-03-02T00:46:38;60.57;;;35.97;;
1320;SDS011;653;51.480;11.992;2024-03-02T00:49:11;58.63;;;36.27;;
1320;SDS011;653;51.480;11.992;2024-03-02T00:51:38;60.23;;;35.83;;
1320;SDS011;653;51.480;11.992;2024-03-02T00:54:11;56.63;;;35.73;;
1320;SDS011;653;51.480;11.992;2024-03-02T00:56:37;54.43;;;34.57;;
1320;SDS011;653;51.480;11.992;2024-03-02T00:59:04;49.00;;;31.60;;
1320;SDS011;653;51.480;11.992;2024-03-02T01:01:35;48.70;;;34.43;;
1320;SDS011;653;51.480;11.992;2024-03-02T01:04:01;57.63;;;36.13;;
1320;SDS011;653;51.480;11.992;2024-03-02T01:06:31;55.13;;;35.67;;
1320;SDS011;653;51.480;11.992;2024-03-02T01:08:58;59.23;;;35.07;;
1320;SDS011;653;51.480;11.992;2024-03-02T01:11:31;54.63;;;36.57;;
1320;SDS011;653;51.480;11.992;2024-03-02T01:13:59;61.60;;;38.07;;
1320;SDS011;653;51.480;11.992;2024-03-02T01:16:26;54.77;;;37.97;;
1320;SDS011;653;51.480;11.992;2024-03-02T01:18:53;67.63;;;40.27;;
1320;SDS011;653;51.480;11.992;2024-03-02T01:21:22;66.97;;;40.83;;
1320;SDS011;653;51.480;11.992;2024-03-02T01:23:50;65.37;;;41.47;;
1320;SDS011;653;51.480;11.992;2024-03-02T01:26:17;63.17;;;38.37;;
1320;SDS011;653;51.480;11.992;2024-03-02T01:28:46;58.70;;;37.20;;
1320;SDS011;653;51.480;11.992;2024-03-02T01:31:12;58.97;;;38.90;;
1320;SDS011;653;51.480;11.992;2024-03-02T01:33:39;60.33;;;34.93;;
1320;SDS011;653;51.480;11.992;2024-03-02T01:36:06;56.87;;;35.80;;
1320;SDS011;653;51.480;11.992;2024-03-02T01:38:35;59.97;;;35.83;;
1320;SDS011;653;51.480;11.992;2024-03-02T01:41:02;53.03;;;33.40;;
1320;SDS011;653;51.480;11.992;2024-03-02T01:43:28;53.77;;;33.63;;
1320;SDS011;653;51.480;11.992;2024-03-02T01:45:58;54.27;;;32.03;;
1320;SDS011;653;51.480;11.992;2024-03-02T01:48:24;47.27;;;30.50;;
1320;SDS011;653;51.480;11.992;2024-03-02T01:50:50;50.40;;;30.73;;
1320;SDS011;653;51.480;11.992;2024-03-02T01:53:18;46.40;;;31.60;;
1320;SDS011;653;51.480;11.992;2024-03-02T01:55:45;48.00;;;29.50;;
1320;SDS011;653;51.480;11.992;2024-03-02T01:58:13;51.27;;;33.20;;
1320;SDS011;653;51.480;11.992;2024-03-02T02:00:40;46.00;;;31.53;;
1320;SDS011;653;51.480;11.992;2024-03-02T02:03:12;42.27;;;29.70;;
1320;SDS011;653;51.480;11.992;2024-03-02T02:05:39;50.00;;;33.43;;
1320;SDS011;653;51.480;11.992;2024-03-02T02:08:09;48.37;;;31.47;;
1320;SDS011;653;51.480;11.992;2024-03-02T02:10:37;51.00;;;32.63;;
1320;SDS011;653;51.480;11.992;2024-03-02T02:13:05;50.50;;;32.13;;
1320;SDS011;653;51.480;11.992;2024-03-02T02:15:32;47.63;;;31.33;;
1320;SDS011;653;51.480;11.992;2024-03-02T02:18:02;55.40;;;32.10;;
1320;SDS011;653;51.480;11.992;2024-03-02T02:20:31;50.47;;;31.90;;
1320;SDS011;653;51.480;11.992;2024-03-02T02:23:01;56.77;;;33.20;;
1320;SDS011;653;51.480;11.992;2024-03-02T02:25:30;51.70;;;32.07;;
1320;SDS011;653;51.480;11.992;2024-03-02T02:27:57;56.70;;;33.57;;
1320;SDS011;653;51.480;11.992;2024-03-02T02:30:27;61.33;;;34.23;;
1320;SDS011;653;51.480;11.992;2024-03-02T02:32:53;53.70;;;35.33;;
1320;SDS011;653;51.480;11.992;2024-03-02T02:35:24;51.10;;;33.37;;
1320;SDS011;653;51.480;11.992;2024-03-02T02:37:50;42.37;;;31.20;;
1320;SDS011;653;51.480;11.992;2024-03-02T02:40:19;53.80;;;32.03;;
1320;SDS011;653;51.480;11.992;2024-03-02T02:42:46;42.67;;;28.80;;
1320;SDS011;653;51.480;11.992;2024-03-02T02:45:14;53.27;;;31.63;;
1320;SDS011;653;51.480;11.992;2024-03-02T02:47:40;49.83;;;29.47;;
1320;SDS011;653;51.480;11.992;2024-03-02T02:50:09;57.80;;;32.00;;
1320;SDS011;653;51.480;11.992;2024-03-02T02:52:38;49.43;;;30.80;;
1320;SDS011;653;51.480;11.992;2024-03-02T02:55:06;46.93;;;33.20;;
1320;SDS011;653;51.480;11.992;2024-03-02T02:57:36;46.50;;;31.73;;
1320;SDS011;653;51.480;11.992;2024-03-02T03:00:05;49.90;;;30.90;;
1320;SDS011;653;51.480;11.992;2024-03-02T03:02:35;50.27;;;31.90;;
1320;SDS011;653;51.480;11.992;2024-03-02T03:05:01;46.37;;;28.97;;
1320;SDS011;653;51.480;11.992;2024-03-02T03:07:30;45.13;;;29.90;;
1320;SDS011;653;51.480;11.992;2024-03-02T03:10:07;44.83;;;31.10;;
1320;SDS011;653;51.480;11.992;2024-03-02T03:12:35;37.20;;;26.83;;
1320;SDS011;653;51.480;11.992;2024-03-02T03:15:03;40.10;;;28.43;;
1320;SDS011;653;51.480;11.992;2024-03-02T03:17:32;45.60;;;29.97;;
1320;SDS011;653;51.480;11.992;2024-03-02T03:20:00;43.00;;;30.30;;
1320;SDS011;653;51.480;11.992;2024-03-02T03:22:31;41.23;;;26.90;;
1320;SDS011;653;51.480;11.992;2024-03-02T03:24:57;45.00;;;27.57;;
1320;SDS011;653;51.480;11.992;2024-03-02T03:27:25;39.03;;;27.43;;
1320;SDS011;653;51.480;11.992;2024-03-02T03:29:54;40.20;;;28.60;;
1320;SDS011;653;51.480;11.992;2024-03-02T03:32:22;39.13;;;26.33;;
1320;SDS011;653;51.480;11.992;2024-03-02T03:34:50;35.23;;;25.73;;
1320;SDS011;653;51.480;11.992;2024-03-02T03:37:17;37.83;;;26.00;;
1320;SDS011;653;51.480;11.992;2024-03-02T03:39:47;37.63;;;26.93;;
1320;SDS011;653;51.480;11.992;2024-03-02T03:42:13;44.53;;;26.93;;
1320;SDS011;653;51.480;11.992;2024-03-02T03:44:40;38.57;;;27.37;;
1320;SDS011;653;51.480;11.992;2024-03-02T03:47:09;38.00;;;26.50;;
1320;SDS011;653;51.480;11.992;2024-03-02T03:49:35;34.20;;;24.27;;
1320;SDS011;653;51.480;11.992;2024-03-02T03:52:03;33.90;;;27.40;;
1320;SDS011;653;51.480;11.992;2024-03-02T03:54:33;33.30;;;24.57;;
1320;SDS011;653;51.480;11.992;2024-03-02T03:57:03;39.43;;;27.17;;
1320;SDS011;653;51.480;11.992;2024-03-02T03:59:31;38.20;;;25.97;;
1320;SDS011;653;51.480;11.992;2024-03-02T04:01:59;35.97;;;25.90;;
1320;SDS011;653;51.480;11.992;2024-03-02T04:04:27;32.17;;;23.07;;
1320;SDS011;653;51.480;11.992;2024-03-02T04:06:53;37.60;;;24.97;;
1320;SDS011;653;51.480;11.992;2024-03-02T04:09:21;31.17;;;23.47;;
1320;SDS011;653;51.480;11.992;2024-03-02T04:11:49;39.73;;;24.37;;
1320;SDS011;653;51.480;11.992;2024-03-02T04:14:16;50.07;;;27.63;;
1320;SDS011;653;51.480;11.992;2024-03-02T04:16:43;36.83;;;24.10;;
1320;SDS011;653;51.480;11.992;2024-03-02T04:19:10;37.47;;;24.63;;
1320;SDS011;653;51.480;11.992;2024-03-02T04:21:39;33.43;;;22.83;;
1320;SDS011;653;51.480;11.992;2024-03-02T04:24:07;36.93;;;24.97;;
1320;SDS011;653;51.480;11.992;2024-03-02T04:26:35;37.07;;;24.20;;
1320;SDS011;653;51.480;11.992;2024-03-02T04:29:02;34.37;;;24.87;;
1320;SDS011;653;51.480;11.992;2024-03-02T04:31:30;38.20;;;27.37;;
1320;SDS011;653;51.480;11.992;2024-03-02T04:34:00;42.13;;;28.07;;
1320;SDS011;653;51.480;11.992;2024-03-02T04:36:28;37.03;;;26.73;;
1320;SDS011;653;51.480;11.992;2024-03-02T04:38:57;35.33;;;25.57;;
1320;SDS011;653;51.480;11.992;2024-03-02T04:41:34;43.00;;;24.90;;
1320;SDS011;653;51.480;11.992;2024-03-02T04:44:02;36.17;;;25.67;;
1320;SDS011;653;51.480;11.992;2024-03-02T04:46:31;40.87;;;27.70;;
1320;SDS011;653;51.480;11.992;2024-03-02T04:48:58;40.40;;;25.67;;
1320;SDS011;653;51.480;11.992;2024-03-02T04:51:25;43.00;;;28.03;;
1320;SDS011;653;51.480;11.992;2024-03-02T04:53:52;41.00;;;29.17;;
1320;SDS011;653;51.480;11.992;2024-03-02T04:56:22;39.20;;;26.87;;
1320;SDS011;653;51.480;11.992;2024-03-02T04:59:10;41.37;;;27.10;;
1320;SDS011;653;51.480;11.992;2024-03-02T05:01:36;38.73;;;27.30;;
1320;SDS011;653;51.480;11.992;2024-03-02T05:04:03;40.97;;;27.83;;
1320;SDS011;653;51.480;11.992;2024-03-02T05:06:29;52.03;;;30.23;;
1320;SDS011;653;51.480;11.992;2024-03-02T05:08:56;40.70;;;27.70;;
1320;SDS011;653;51.480;11.992;2024-03-02T05:11:25;41.20;;;27.70;;
1320;SDS011;653;51.480;11.992;2024-03-02T05:14:10;45.27;;;28.57;;
1320;SDS011;653;51.480;11.992;2024-03-02T05:16:36;37.20;;;26.10;;
1320;SDS011;653;51.480;11.992;2024-03-02T05:19:05;38.80;;;26.70;;
1320;SDS011;653;51.480;11.992;2024-03-02T05:21:32;38.77;;;26.67;;
1320;SDS011;653;51.480;11.992;2024-03-02T05:23:59;37.20;;;26.10;;
1320;SDS011;653;51.480;11.992;2024-03-02T05:26:30;37.37;;;25.50;;
1320;SDS011;653;51.480;11.992;2024-03-02T05:28:59;37.77;;;25.33;;
1320;SDS011;653;51.480;11.992;2024-03-02T05:31:26;35.10;;;24.03;;
1320;SDS011;653;51.480;11.992;2024-03-02T05:33:53;33.57;;;24.37;;
1320;SDS011;653;51.480;11.992;2024-03-02T05:36:19;34.13;;;26.17;;
1320;SDS011;653;51.480;11.992;2024-03-02T05:38:50;35.47;;;23.17;;
1320;SDS011;653;51.480;11.992;2024-03-02T05:41:18;40.30;;;25.70;;
1320;SDS011;653;51.480;11.992;2024-03-02T05:43:45;36.23;;;24.17;;
1320;SDS011;653;51.480;11.992;2024-03-02T05:46:16;33.83;;;23.83;;
1320;SDS011;653;51.480;11.992;2024-03-02T05:48:42;35.67;;;25.07;;
1320;SDS011;653;51.480;11.992;2024-03-02T05:51:09;41.80;;;24.97;;
1320;SDS011;653;51.480;11.992;2024-03-02T05:53:35;30.63;;;22.37;;
1320;SDS011;653;51.480;11.992;2024-03-02T05:56:04;37.97;;;24.63;;
1320;SDS011;653;51.480;11.992;2024-03-02T05:58:31;34.20;;;24.93;;
1320;SDS011;653;51.480;11.992;2024-03-02T06:01:10;36.47;;;22.90;;
1320;SDS011;653;51.480;11.992;2024-03-02T06:03:37;29.30;;;21.87;;
1320;SDS011;653;51.480;11.992;2024-03-02T06:06:03;37.10;;;24.40;;
1320;SDS011;653;51.480;11.992;2024-03-02T06:08:30;33.50;;;23.40;;
1320;SDS011;653;51.480;11.992;2024-03-02T06:11:01;34.10;;;23.90;;
1320;SDS011;653;51.480;11.992;2024-03-02T06:13:29;34.60;;;24.43;;
1320;SDS011;653;51.480;11.992;2024-03-02T06:15:57;37.67;;;24.17;;
1320;SDS011;653;51.480;11.992;2024-03-02T06:18:25;29.90;;;22.80;;
1320;SDS011;653;51.480;11.992;2024-03-02T06:20:52;31.97;;;23.97;;
1320;SDS011;653;51.480;11.992;2024-03-02T06:23:19;35.40;;;25.07;;
1320;SDS011;653;51.480;11.992;2024-03-02T06:25:45;33.10;;;23.80;;
1320;SDS011;653;51.480;11.992;2024-03-02T06:28:15;43.60;;;25.40;;
1320;SDS011;653;51.480;11.992;2024-03-02T06:30:44;36.77;;;23.90;;
1320;SDS011;653;51.480;11.992;2024-03-02T06:33:12;28.63;;;23.57;;
1320;SDS011;653;51.480;11.992;2024-03-02T06:35:41;32.13;;;23.23;;
1320;SDS011;653;51.480;11.992;2024-03-02T06:38:07;35.50;;;25.40;;
1320;SDS011;653;51.480;11.992;2024-03-02T06:40:33;41.83;;;28.37;;
1320;SDS011;653;51.480;11.992;2024-03-02T06:43:03;31.87;;;23.73;;
1320;SDS011;653;51.480;11.992;2024-03-02T06:45:31;40.17;;;25.60;;
1320;SDS011;653;51.480;11.992;2024-03-02T06:48:04;36.57;;;25.23;;
1320;SDS011;653;51.480;11.992;2024-03-02T06:50:32;31.80;;;24.87;;
1320;SDS011;653;51.480;11.992;2024-03-02T06:53:00;35.07;;;25.37;;
1320;SDS011;653;51.480;11.992;2024-03-02T06:55:30;35.70;;;25.27;;
1320;SDS011;653;51.480;11.992;2024-03-02T06:58:00;34.87;;;25.00;;
1320;SDS011;653;51.480;11.992;2024-03-02T07:00:31;29.97;;;23.70;;
1320;SDS011;653;51.480;11.992;2024-03-02T07:03:01;34.90;;;24.00;;
1320;SDS011;653;51.480;11.992;2024-03-02T07:05:30;38.20;;;25.53;;
1320;SDS011;653;51.480;11.992;2024-03-02T07:08:02;40.77;;;24.13;;
1320;SDS011;653;51.480;11.992;2024-03-02T07:10:31;34.83;;;24.97;;
1320;SDS011;653;51.480;11.992;2024-03-02T07:13:01;32.27;;;23.30;;
1320;SDS011;653;51.480;11.992;2024-03-02T07:15:29;32.20;;;23.90;;
1320;SDS011;653;51.480;11.992;2024-03-02T07:18:11;33.53;;;23.13;;
1320;SDS011;653;51.480;11.992;2024-03-02T07:20:38;35.37;;;24.33;;
1320;SDS011;653;51.480;11.992;2024-03-02T07:23:07;36.63;;;24.47;;
1320;SDS011;653;51.480;11.992;2024-03-02T07:25:35;33.70;;;23.33;;
1320;SDS011;653;51.480;11.992;2024-03-02T07:28:03;34.30;;;24.00;;
1320;SDS011;653;51.480;11.992;2024-03-02T07:30:31;32.67;;;24.50;;
1320;SDS011;653;51.480;11.992;2024-03-02T07:33:01;32.20;;;24.43;;
1320;SDS011;653;51.480;11.992;2024-03-02T07:35:30;33.50;;;24.03;;
1320;SDS011;653;51.480;11.992;2024-03-02T07:38:01;30.73;;;22.40;;
1320;SDS011;653;51.480;11.992;2024-03-02T07:40:36;32.70;;;22.80;;
1320;SDS011;653;51.480;11.992;2024-03-02T07:43:02;31.90;;;22.90;;
1320;SDS011;653;51.480;11.992;2024-03-02T07:45:30;34.27;;;24.20;;
1320;SDS011;653;51.480;11.992;2024-03-02T07:47:58;29.07;;;21.80;;
1320;SDS011;653;51.480;11.992;2024-03-02T07:50:25;32.53;;;23.20;;
1320;SDS011;653;51.480;11.992;2024-03-02T07:52:54;33.53;;;25.60;;
1320;SDS011;653;51.480;11.992;2024-03-02T07:55:20;41.07;;;25.90;;
1320;SDS011;653;51.480;11.992;2024-03-02T07:57:51;40.13;;;26.90;;
1320;SDS011;653;51.480;11.992;2024-03-02T08:00:21;33.90;;;24.97;;
1320;SDS011;653;51.480;11.992;2024-03-02T08:02:49;35.53;;;27.70;;
1320;SDS011;653;51.480;11.992;2024-03-02T08:05:17;33.97;;;25.80;;
1320;SDS011;653;51.480;11.992;2024-03-02T08:07:44;35.00;;;25.83;;
1320;SDS011;653;51.480;11.992;2024-03-02T08:10:11;32.80;;;23.97;;
1320;SDS011;653;51.480;11.992;2024-03-02T08:12:38;35.53;;;25.80;;
1320;SDS011;653;51.480;11.992;2024-03-02T08:15:06;32.67;;;25.90;;
1320;SDS011;653;51.480;11.992;2024-03-02T08:17:35;31.40;;;24.50;;
1320;SDS011;653;51.480;11.992;2024-03-02T08:20:05;37.90;;;26.83;;
1320;SDS011;653;51.480;11.992;2024-03-02T08:22:32;35.60;;;25.00;;
1320;SDS011;653;51.480;11.992;2024-03-02T08:25:02;34.27;;;26.47;;
1320;SDS011;653;51.480;11.992;2024-03-02T08:27:30;38.13;;;26.80;;
1320;SDS011;653;51.480;11.992;2024-03-02T08:29:58;37.00;;;25.57;;
1320;SDS011;653;51.480;11.992;2024-03-02T08:32:27;35.90;;;24.60;;
1320;SDS011;653;51.480;11.992;2024-03-02T08:34:53;38.80;;;25.47;;
1320;SDS011;653;51.480;11.992;2024-03-02T08:37:20;37.57;;;27.33;;
1320;SDS011;653;51.480;11.992;2024-03-02T08:39:47;36.37;;;28.40;;
1320;SDS011;653;51.480;11.992;2024-03-02T08:42:16;40.40;;;28.13;;
1320;SDS011;653;51.480;11.992;2024-03-02T08:44:45;40.67;;;26.67;;
1320;SDS011;653;51.480;11.992;2024-03-02T08:47:14;38.10;;;25.60;;
1320;SDS011;653;51.480;11.992;2024-03-02T08:49:41;40.67;;;28.33;;
1320;SDS011;653;51.480;11.992;2024-03-02T08:52:09;38.53;;;26.77;;
1320;SDS011;653;51.480;11.992;2024-03-02T08:54:35;40.50;;;28.63;;
1320;SDS011;653;51.480;11.992;2024-03-02T08:57:04;37.40;;;27.13;;
1320;SDS011;653;51.480;11.992;2024-03-02T08:59:33;35.67;;;28.13;;
1320;SDS011;653;51.480;11.992;2024-03-02T09:02:00;37.57;;;25.70;;
1320;SDS011;653;51.480;11.992;2024-03-02T09:04:29;40.37;;;27.13;;
1320;SDS011;653;51.480;11.992;2024-03-02T09:06:59;38.93;;;26.07;;
1320;SDS011;653;51.480;11.992;2024-03-02T09:09:32;37.53;;;26.90;;
1320;SDS011;653;51.480;11.992;2024-03-02T09:12:00;37.83;;;24.47;;
1320;SDS011;653;51.480;11.992;2024-03-02T09:14:28;38.97;;;27.20;;
1320;SDS011;653;51.480;11.992;2024-03-02T09:16:56;37.10;;;26.20;;
1320;SDS011;653;51.480;11.992;2024-03-02T09:19:23;39.53;;;27.93;;
1320;SDS011;653;51.480;11.992;2024-03-02T09:21:50;32.53;;;26.00;;
1320;SDS011;653;51.480;11.992;2024-03-02T09:24:18;41.73;;;25.97;;
1320;SDS011;653;51.480;11.992;2024-03-02T09:26:47;33.60;;;25.13;;
1320;SDS011;653;51.480;11.992;2024-03-02T09:29:15;28.27;;;22.13;;
1320;SDS011;653;51.480;11.992;2024-03-02T09:31:42;34.70;;;25.90;;
1320;SDS011;653;51.480;11.992;2024-03-02T09:34:10;32.20;;;24.80;;
1320;SDS011;653;51.480;11.992;2024-03-02T09:36:37;32.93;;;24.47;;
1320;SDS011;653;51.480;11.992;2024-03-02T09:39:05;36.20;;;25.03;;
1320;SDS011;653;51.480;11.992;2024-03-02T09:41:34;39.30;;;26.43;;
1320;SDS011;653;51.480;11.992;2024-03-02T09:44:03;34.97;;;25.53;;
1320;SDS011;653;51.480;11.992;2024-03-02T09:46:31;36.10;;;25.00;;
1320;SDS011;653;51.480;11.992;2024-03-02T09:48:59;29.87;;;22.37;;
1320;SDS011;653;51.480;11.992;2024-03-02T09:51:26;30.27;;;22.13;;
1320;SDS011;653;51.480;11.992;2024-03-02T09:53:54;33.63;;;25.70;;
1320;SDS011;653;51.480;11.992;2024-03-02T09:56:21;32.03;;;24.27;;
1320;SDS011;653;51.480;11.992;2024-03-02T09:58:52;28.40;;;22.90;;
1320;SDS011;653;51.480;11.992;2024-03-02T10:01:20;32.40;;;21.97;;
1320;SDS011;653;51.480;11.992;2024-03-02T10:03:48;32.17;;;24.20;;
1320;SDS011;653;51.480;11.992;2024-03-02T10:06:20;30.70;;;23.27;;
1320;SDS011;653;51.480;11.992;2024-03-02T10:08:48;31.23;;;21.80;;
1320;SDS011;653;51.480;11.992;2024-03-02T10:11:25;30.03;;;22.30;;
1320;SDS011;653;51.480;11.992;2024-03-02T10:13:55;29.97;;;23.50;;
1320;SDS011;653;51.480;11.992;2024-03-02T10:16:31;29.30;;;22.40;;
1320;SDS011;653;51.480;11.992;2024-03-02T10:18:58;27.90;;;21.47;;
1320;SDS011;653;51.480;11.992;2024-03-02T10:21:42;26.63;;;21.00;;
1320;SDS011;653;51.480;11.992;2024-03-02T10:24:08;29.70;;;21.47;;
1320;SDS011;653;51.480;11.992;2024-03-02T10:26:35;29.50;;;22.10;;
1320;SDS011;653;51.480;11.992;2024-03-02T10:29:04;36.60;;;26.43;;
1320;SDS011;653;51.480;11.992;2024-03-02T10:31:31;30.50;;;22.87;;
1320;SDS011;653;51.480;11.992;2024-03-02T10:33:58;26.57;;;21.07;;
1320;SDS011;653;51.480;11.992;2024-03-02T10:36:26;27.60;;;21.07;;
1320;SDS011;653;51.480;11.992;2024-03-02T10:38:53;32.27;;;22.33;;
1320;SDS011;653;51.480;11.992;2024-03-02T10:41:21;23.13;;;19.20;;
1320;SDS011;653;51.480;11.992;2024-03-02T10:43:51;26.40;;;19.80;;
1320;SDS011;653;51.480;11.992;2024-03-02T10:46:24;28.50;;;20.47;;
1320;SDS011;653;51.480;11.992;2024-03-02T10:48:54;26.77;;;20.30;;
1320;SDS011;653;51.480;11.992;2024-03-02T10:51:22;27.20;;;21.43;;
1320;SDS011;653;51.480;11.992;2024-03-02T10:53:49;28.60;;;21.17;;
1320;SDS011;653;51.480;11.992;2024-03-02T10:56:17;26.90;;;19.73;;
1320;SDS011;653;51.480;11.992;2024-03-02T10:58:47;24.50;;;20.33;;
1320;SDS011;653;51.480;11.992;2024-03-02T11:01:18;26.87;;;19.90;;
1320;SDS011;653;51.480;11.992;2024-03-02T11:03:48;24.53;;;18.90;;
1320;SDS011;653;51.480;11.992;2024-03-02T11:06:15;25.97;;;19.43;;
1320;SDS011;653;51.480;11.992;2024-03-02T11:08:43;25.17;;;20.10;;
1320;SDS011;653;51.480;11.992;2024-03-02T11:11:15;25.80;;;18.07;;
1320;SDS011;653;51.480;11.992;2024-03-02T11:13:49;20.73;;;18.30;;
1320;SDS011;653;51.480;11.992;2024-03-02T11:16:19;22.60;;;17.90;;
1320;SDS011;653;51.480;11.992;2024-03-02T11:18:51;23.03;;;17.90;;
1320;SDS011;653;51.480;11.992;2024-03-02T11:21:19;26.60;;;19.40;;
1320;SDS011;653;51.480;11.992;2024-03-02T11:23:45;23.97;;;19.40;;
1320;SDS011;653;51.480;11.992;2024-03-02T11:26:22;24.53;;;18.47;;
1320;SDS011;653;51.480;11.992;2024-03-02T11:28:49;19.27;;;16.03;;
1320;SDS011;653;51.480;11.992;2024-03-02T11:31:16;22.97;;;18.17;;
1320;SDS011;653;51.480;11.992;2024-03-02T11:33:43;20.80;;;16.93;;
1320;SDS011;653;51.480;11.992;2024-03-02T11:36:12;23.03;;;19.10;;
1320;SDS011;653;51.480;11.992;2024-03-02T11:38:39;24.53;;;19.10;;
1320;SDS011;653;51.480;11.992;2024-03-02T11:41:09;24.50;;;19.10;;
1320;SDS011;653;51.480;11.992;2024-03-02T11:43:39;23.07;;;17.47;;
1320;SDS011;653;51.480;11.992;2024-03-02T11:46:07;20.23;;;17.17;;
1320;SDS011;653;51.480;11.992;2024-03-02T11:48:34;22.77;;;19.40;;
1320;SDS011;653;51.480;11.992;2024-03-02T11:51:02;22.93;;;19.30;;
1320;SDS011;653;51.480;11.992;2024-03-02T11:53:31;27.63;;;20.93;;
1320;SDS011;653;51.480;11.992;2024-03-02T11:56:00;26.23;;;20.90;;
1320;SDS011;653;51.480;11.992;2024-03-02T11:58:30;22.80;;;19.37;;
1320;SDS011;653;51.480;11.992;2024-03-02T12:00:57;20.47;;;18.10;;
1320;SDS011;653;51.480;11.992;2024-03-02T12:03:27;19.77;;;17.20;;
1320;SDS011;653;51.480;11.992;2024-03-02T12:05:56;18.87;;;16.83;;
1320;SDS011;653;51.480;11.992;2024-03-02T12:08:26;20.33;;;17.63;;
1320;SDS011;653;51.480;11.992;2024-03-02T12:11:02;20.13;;;16.20;;
1320;SDS011;653;51.480;11.992;2024-03-02T12:13:28;20.10;;;17.37;;
1320;SDS011;653;51.480;11.992;2024-03-02T12:15:56;23.10;;;16.07;;
1320;SDS011;653;51.480;11.992;2024-03-02T12:18:22;20.07;;;15.60;;
1320;SDS011;653;51.480;11.992;2024-03-02T12:20:50;16.97;;;14.90;;
1320;SDS011;653;51.480;11.992;2024-03-02T12:23:18;16.80;;;15.00;;
1320;SDS011;653;51.480;11.992;2024-03-02T12:25:47;18.70;;;14.80;;
1320;SDS011;653;51.480;11.992;2024-03-02T12:28:16;17.53;;;14.70;;
1320;SDS011;653;51.480;11.992;2024-03-02T12:30:42;19.93;;;15.40;;
1320;SDS011;653;51.480;11.992;2024-03-02T12:33:10;20.37;;;15.37;;
1320;SDS011;653;51.480;11.992;2024-03-02T12:35:37;17.33;;;14.53;;
1320;SDS011;653;51.480;11.992;2024-03-02T12:38:04;21.37;;;15.73;;
1320;SDS011;653;51.480;11.992;2024-03-02T12:40:32;19.20;;;15.43;;
1320;SDS011;653;51.480;11.992;2024-03-02T12:42:58;17.20;;;15.03;;
1320;SDS011;653;51.480;11.992;2024-03-02T12:45:27;17.67;;;14.57;;
1320;SDS011;653;51.480;11.992;2024-03-02T12:47:53;17.90;;;14.90;;
1320;SDS011;653;51.480;11.992;2024-03-02T12:50:20;19.93;;;14.10;;
1320;SDS011;653;51.480;11.992;2024-03-02T12:52:50;18.90;;;15.17;;
1320;SDS011;653;51.480;11.992;2024-03-02T12:55:23;28.50;;;21.40;;
1320;SDS011;653;51.480;11.992;2024-03-02T12:57:51;18.93;;;15.10;;
1320;SDS011;653;51.480;11.992;2024-03-02T13:00:20;17.47;;;13.07;;
1320;SDS011;653;51.480;11.992;2024-03-02T13:02:49;17.20;;;14.80;;
1320;SDS011;653;51.480;11.992;2024-03-02T13:05:20;14.80;;;12.87;;
1320;SDS011;653;51.480;11.992;2024-03-02T13:07:54;15.10;;;12.27;;
1320;SDS011;653;51.480;11.992;2024-03-02T13:10:27;14.77;;;12.27;;
1320;SDS011;653;51.480;11.992;2024-03-02T13:12:55;15.00;;;12.70;;
1320;SDS011;653;51.480;11.992;2024-03-02T13:15:25;14.17;;;12.43;;
1320;SDS011;653;51.480;11.992;2024-03-02T13:17:59;15.20;;;11.77;;
1320;SDS011;653;51.480;11.992;2024-03-02T13:20:29;13.47;;;12.00;;
1320;SDS011;653;51.480;11.992;2024-03-02T13:22:59;12.83;;;11.13;;
1320;SDS011;653;51.480;11.992;2024-03-02T13:25:27;16.80;;;11.90;;
1320;SDS011;653;51.480;11.992;2024-03-02T13:28:08;13.60;;;12.07;;
1320;SDS011;653;51.480;11.992;2024-03-02T13:30:38;15.00;;;11.53;;
1320;SDS011;653;51.480;11.992;2024-03-02T13:33:08;14.73;;;12.43;;
1320;SDS011;653;51.480;11.992;2024-03-02T13:35:35;12.97;;;11.73;;
1320;SDS011;653;51.480;11.992;2024-03-02T13:38:02;13.83;;;12.30;;
1320;SDS011;653;51.480;11.992;2024-03-02T13:40:30;14.20;;;12.70;;
1320;SDS011;653;51.480;11.992;2024-03-02T13:43:00;13.70;;;12.30;;
1320;SDS011;653;51.480;11.992;2024-03-02T13:45:36;12.53;;;11.33;;
1320;SDS011;653;51.480;11.992;2024-03-02T13:48:08;12.73;;;10.33;;
1320;SDS011;653;51.480;11.992;2024-03-02T13:50:36;11.80;;;10.70;;
1320;SDS011;653;51.480;11.992;2024-03-02T13:53:07;12.63;;;11.33;;
1320;SDS011;653;51.480;11.992;2024-03-02T13:55:35;12.87;;;11.57;;
1320;SDS011;653;51.480;11.992;2024-03-02T13:58:03;13.30;;;11.70;;
1320;SDS011;653;51.480;11.992;2024-03-02T14:00:31;13.80;;;11.60;;
1320;SDS011;653;51.480;11.992;2024-03-02T14:03:00;12.77;;;11.47;;
1320;SDS011;653;51.480;11.992;2024-03-02T14:05:29;14.10;;;11.80;;
1320;SDS011;653;51.480;11.992;2024-03-02T14:08:01;10.50;;;9.60;;
1320;SDS011;653;51.480;11.992;2024-03-02T14:10:30;11.13;;;9.93;;
1320;SDS011;653;51.480;11.992;2024-03-02T14:12:58;11.13;;;10.03;;
1320;SDS011;653;51.480;11.992;2024-03-02T14:15:25;11.00;;;9.50;;
1320;SDS011;653;51.480;11.992;2024-03-02T14:18:05;15.17;;;10.10;;
1320;SDS011;653;51.480;11.992;2024-03-02T14:20:38;13.00;;;10.30;;
1320;SDS011;653;51.480;11.992;2024-03-02T14:23:14;11.80;;;9.90;;
1320;SDS011;653;51.480;11.992;2024-03-02T14:25:43;10.40;;;9.20;;
1320;SDS011;653;51.480;11.992;2024-03-02T14:28:13;12.70;;;9.50;;
1320;SDS011;653;51.480;11.992;2024-03-02T14:30:41;12.20;;;10.90;;
1320;SDS011;653;51.480;11.992;2024-03-02T14:33:11;10.90;;;10.00;;
1320;SDS011;653;51.480;11.992;2024-03-02T14:35:41;15.47;;;10.17;;
1320;SDS011;653;51.480;11.992;2024-03-02T14:38:08;10.93;;;9.70;;
1320;SDS011;653;51.480;11.992;2024-03-02T14:40:36;10.77;;;9.67;;
1320;SDS011;653;51.480;11.992;2024-03-02T14:43:04;10.80;;;9.80;;
1320;SDS011;653;51.480;11.992;2024-03-02T14:45:32;10.13;;;9.13;;
1320;SDS011;653;51.480;11.992;2024-03-02T14:48:00;12.30;;;10.50;;
1320;SDS011;653;51.480;11.992;2024-03-02T14:50:28;11.57;;;10.33;;
1320;SDS011;653;51.480;11.992;2024-03-02T14:52:58;11.53;;;10.33;;
1320;SDS011;653;51.480;11.992;2024-03-02T14:55:27;11.10;;;9.87;;
1320;SDS011;653;51.480;11.992;2024-03-02T14:57:55;10.70;;;9.70;;